Time;durP1;ratioP1;P1;durP2;ratioP2;P2;SDS_P1;SDS_P2;PMS_P1;PMS_P2;Temp;Humidity;BMP_temperature;BMP_pressure;BME280_temperature;BME280_humidity;BME280_pressure;Samples;Min_cycle;Max_cycle;Signal;HPM_P1;HPM_P2
2023/12/04 00:01:13;;;;;;;16.43;14.80;;;-1.10;49.20;;;;;;20496;6795;310470;-70
2023/12/04 00:03:50;;;;;;;14.53;10.83;;;-0.90;48.30;;;;;;20914;6738;117789;-70
2023/12/04 00:18:05;;;;;;;12.13;10.77;;;-0.90;48.10;;;;;;20808;6766;118179;-70
2023/12/04 00:20:41;;;;;;;15.43;13.93;;;-0.90;48.10;;;;;;20559;6768;281641;-71
2023/12/04 00:23:16;;;;;;;12.13;10.93;;;-0.90;48.50;;;;;;20854;6771;117698;-71
2023/12/04 00:25:52;;;;;;;16.30;14.60;;;-1.00;48.50;;;;;;20498;6811;279591;-71
2023/12/04 00:28:28;;;;;;;12.87;10.37;;;-1.00;48.70;;;;;;20820;6768;117530;-69
2023/12/04 00:31:03;;;;;;;16.17;14.57;;;-1.10;48.70;;;;;;20509;6766;310013;-71
2023/12/04 00:33:39;;;;;;;17.02;15.35;;;-1.10;48.80;;;;;;20549;6795;278450;-70
2023/12/04 00:36:14;;;;;;;18.75;16.85;;;-0.80;48.20;;;;;;20541;6795;295878;-70
2023/12/04 00:38:50;;;;;;;18.23;16.30;;;-0.60;47.20;;;;;;20610;6785;307609;-70
2023/12/04 00:41:26;;;;;;;16.77;15.07;;;-0.50;46.90;;;;;;20481;6783;310834;-70
2023/12/04 00:44:01;;;;;;;16.57;14.87;;;-0.40;46.70;;;;;;20593;6783;322092;-70
2023/12/04 00:46:37;;;;;;;12.73;11.40;;;-0.40;46.50;;;;;;20803;6783;117660;-70
2023/12/04 00:49:12;;;;;;;16.23;14.53;;;-0.60;46.70;;;;;;20529;6798;310217;-71
2023/12/04 00:51:48;;;;;;;12.47;11.13;;;-0.70;47.30;;;;;;20574;6786;118110;-70
2023/12/04 00:54:24;;;;;;;14.77;13.27;;;-0.90;47.50;;;;;;20654;6768;278338;-69
2023/12/04 00:56:59;;;;;;;13.67;10.97;;;-0.90;47.90;;;;;;20927;6753;119112;-69
2023/12/04 00:59:36;;;;;;;13.10;10.67;;;-1.10;47.90;;;;;;20847;6765;117922;-69
2023/12/04 01:02:12;;;;;;;12.20;9.60;;;-1.50;49.20;;;;;;20618;6780;119645;-70
2023/12/04 01:04:48;;;;;;;13.40;10.63;;;-1.50;49.20;;;;;;20837;6768;117280;-70
2023/12/04 01:07:23;;;;;;;11.30;10.10;;;-1.70;49.50;;;;;;20752;6783;118643;-70
2023/12/04 01:10:00;;;;;;;11.63;9.57;;;-2.00;50.00;;;;;;20814;6775;117405;-71
2023/12/04 01:12:35;;;;;;;11.47;10.27;;;-2.10;49.90;;;;;;20840;6767;119790;-69
2023/12/04 01:15:12;;;;;;;14.77;13.23;;;-2.10;50.30;;;;;;20603;6769;277215;-71
2023/12/04 01:17:49;;;;;;;15.50;13.90;;;-1.60;49.30;;;;;;20695;6738;307497;-70
2023/12/04 01:20:25;;;;;;;11.73;10.37;;;-1.60;49.30;;;;;;20808;6780;117421;-70
2023/12/04 01:23:02;;;;;;;14.50;13.10;;;-1.50;49.30;;;;;;20678;6766;294212;-70
2023/12/04 01:25:37;;;;;;;10.93;9.83;;;-1.60;48.70;;;;;;20854;6753;117611;-70
2023/12/04 01:28:14;;;;;;;14.13;12.73;;;-1.50;48.50;;;;;;20678;6760;277393;-70
2023/12/04 01:30:49;;;;;;;11.20;10.10;;;-1.60;48.40;;;;;;20762;6766;117591;-71
2023/12/04 01:33:25;;;;;;;15.40;13.90;;;-1.60;48.30;;;;;;20605;6781;278159;-68
2023/12/04 01:36:00;;;;;;;11.50;9.33;;;-1.50;48.20;;;;;;20836;6766;120281;-70
2023/12/04 01:38:36;;;;;;;14.43;13.13;;;-1.60;48.20;;;;;;20625;6761;309226;-69
2023/12/04 01:41:12;;;;;;;12.23;10.40;;;-1.50;48.20;;;;;;20721;6768;118606;-70
2023/12/04 01:43:48;;;;;;;11.93;9.97;;;-1.60;47.90;;;;;;20881;6751;119501;-70
2023/12/04 01:46:25;;;;;;;11.47;9.53;;;-2.00;48.80;;;;;;20797;6775;117353;-70
2023/12/04 01:49:02;;;;;;;10.73;9.03;;;-2.20;49.30;;;;;;20827;6783;118344;-70
2023/12/04 01:51:37;;;;;;;14.57;13.20;;;-2.20;49.30;;;;;;20471;6780;311673;-70
2023/12/04 01:54:15;;;;;;;15.17;13.77;;;-1.70;49.10;;;;;;20701;6760;279162;-70
2023/12/04 01:56:50;;;;;;;12.10;9.57;;;-1.70;49.10;;;;;;20769;6783;117741;-70
2023/12/04 01:59:25;;;;;;;14.60;13.20;;;-1.60;48.90;;;;;;20545;6780;308459;-70
2023/12/04 02:02:02;;;;;;;11.93;9.97;;;-1.50;48.70;;;;;;20728;6771;117893;-70
2023/12/04 02:04:37;;;;;;;10.33;8.93;;;-1.70;49.90;;;;;;20844;6781;117473;-70
2023/12/04 02:07:33;;;;;;;10.97;9.47;;;-1.70;49.30;;;;;;21005;6626;118197;-67
2023/12/04 02:10:09;;;;;;;13.87;12.47;;;-1.70;49.70;;;;;;20660;6753;307258;-67
2023/12/04 02:12:46;;;;;;;11.33;9.33;;;-1.70;49.70;;;;;;20859;6765;117575;-67
2023/12/04 02:15:21;;;;;;;14.30;12.87;;;-1.70;49.30;;;;;;20631;6765;277454;-66
2023/12/04 02:17:57;;;;;;;15.20;13.70;;;-1.40;48.40;;;;;;20714;6738;301835;-66
2023/12/04 02:20:33;;;;;;;12.67;11.10;;;-1.50;48.30;;;;;;20889;6738;118512;-66
2023/12/04 02:23:09;;;;;;;15.73;14.10;;;-1.50;48.30;;;;;;20704;6738;307111;-67
2023/12/04 02:25:45;;;;;;;13.33;11.60;;;-1.70;48.10;;;;;;20937;6738;117596;-67
2023/12/04 02:28:21;;;;;;;18.65;16.65;;;-1.60;48.80;;;;;;20713;6738;311156;-68
2023/12/04 02:30:57;;;;;;;13.83;11.57;;;-1.70;48.70;;;;;;20865;6738;117471;-67
2023/12/04 02:33:33;;;;;;;13.67;10.93;;;-2.00;49.20;;;;;;20921;6738;119497;-67
2023/12/04 02:36:09;;;;;;;13.83;10.63;;;-2.00;49.20;;;;;;20941;6738;117902;-67
2023/12/04 02:38:46;;;;;;;14.03;11.60;;;-2.40;50.10;;;;;;20907;6738;117960;-67
2023/12/04 02:41:21;;;;;;;14.40;11.00;;;-2.40;50.10;;;;;;20812;6738;127722;-67
2023/12/04 02:43:57;;;;;;;13.67;10.83;;;-2.50;50.60;;;;;;20890;6753;117546;-66
2023/12/04 02:46:32;;;;;;;15.43;11.17;;;-2.60;50.90;;;;;;20880;6753;117573;-67
2023/12/04 02:49:09;;;;;;;12.10;9.63;;;-2.80;51.40;;;;;;20868;6751;118632;-67
2023/12/04 02:51:44;;;;;;;16.73;14.70;;;-2.90;51.30;;;;;;20554;6751;287447;-66
2023/12/04 02:54:21;;;;;;;15.10;13.53;;;-2.20;50.40;;;;;;20718;6738;305586;-67
2023/12/04 02:56:56;;;;;;;14.80;13.40;;;-2.30;50.30;;;;;;20615;6764;307690;-68
2023/12/04 02:59:32;;;;;;;14.73;13.30;;;-1.90;48.90;;;;;;20605;6765;307072;-67
2023/12/04 03:02:07;;;;;;;11.17;10.00;;;-1.70;48.40;;;;;;20717;6765;117909;-67
2023/12/04 03:04:44;;;;;;;12.37;10.83;;;-2.00;49.10;;;;;;20869;6760;118590;-67
2023/12/04 03:07:21;;;;;;;18.43;16.07;;;-2.00;49.10;;;;;;20604;6753;278261;-67
2023/12/04 03:09:55;;;;;;;18.17;16.27;;;-1.90;49.70;;;;;;20590;6786;301454;-66
2023/12/04 03:12:31;;;;;;;14.00;11.40;;;-1.70;48.40;;;;;;20630;6837;118666;-66
2023/12/04 03:15:07;;;;;;;16.10;14.40;;;-1.70;48.40;;;;;;20616;6760;336375;-68
2023/12/04 03:17:44;;;;;;;15.87;14.27;;;-1.50;47.80;;;;;;20645;6761;277108;-67
2023/12/04 03:20:19;;;;;;;11.73;10.53;;;-1.50;47.30;;;;;;20835;6761;118058;-67
2023/12/04 03:22:56;;;;;;;10.93;9.10;;;-2.00;47.80;;;;;;20867;6761;117972;-66
2023/12/04 03:25:31;;;;;;;9.73;8.70;;;-2.00;47.80;;;;;;20853;6761;118065;-67
2023/12/04 03:28:07;;;;;;;13.43;12.03;;;-2.20;48.30;;;;;;20646;6761;280691;-67
2023/12/04 03:30:45;;;;;;;14.30;12.77;;;-2.20;48.30;;;;;;20594;6761;309737;-66
2023/12/04 03:33:20;;;;;;;12.17;10.57;;;-2.00;47.60;;;;;;20850;6761;118653;-66
2023/12/04 03:35:56;;;;;;;14.37;12.97;;;-2.00;47.60;;;;;;20645;6761;307504;-66
2023/12/04 03:38:32;;;;;;;10.93;9.83;;;-1.90;48.60;;;;;;20857;6761;117573;-66
2023/12/04 03:41:15;;;;;;;13.87;12.50;;;-1.90;48.60;;;;;;20547;6761;311183;-68
2023/12/04 03:43:50;;;;;;;13.47;12.17;;;-1.70;49.10;;;;;;20653;6761;278202;-67
2023/12/04 03:46:26;;;;;;;9.57;8.47;;;-1.50;48.20;;;;;;20859;6761;118644;-67
2023/12/04 03:49:02;;;;;;;12.77;11.60;;;-1.50;48.00;;;;;;20646;6761;306704;-66
2023/12/04 03:51:37;;;;;;;12.87;11.67;;;-1.50;48.30;;;;;;20464;6775;280208;-66
2023/12/04 03:54:13;;;;;;;10.50;9.40;;;-1.20;48.30;;;;;;20819;6776;119067;-68
2023/12/04 03:56:48;;;;;;;13.47;12.17;;;-1.20;48.40;;;;;;20670;6753;319489;-66
2023/12/04 03:59:24;;;;;;;10.57;9.53;;;-1.20;48.50;;;;;;20862;6753;118449;-67
2023/12/04 04:01:59;;;;;;;8.50;7.63;;;-1.30;48.40;;;;;;20765;6753;117529;-67
2023/12/04 04:04:35;;;;;;;12.30;11.20;;;-1.50;48.90;;;;;;20762;6742;296250;-67
2023/12/04 04:07:10;;;;;;;10.47;9.27;;;-1.50;49.10;;;;;;20862;6768;118057;-66
2023/12/04 04:09:47;;;;;;;12.13;11.03;;;-1.30;49.30;;;;;;20639;6765;279195;-67
2023/12/04 04:12:23;;;;;;;9.50;8.50;;;-1.40;49.20;;;;;;20633;6795;118010;-67
2023/12/04 04:14:58;;;;;;;12.20;11.10;;;-1.30;49.20;;;;;;20535;6810;281862;-66
2023/12/04 04:17:34;;;;;;;9.67;8.67;;;-1.20;49.40;;;;;;20914;6751;120002;-67
2023/12/04 04:20:11;;;;;;;10.47;8.10;;;-1.20;49.40;;;;;;20824;6766;120034;-66
2023/12/04 04:22:46;;;;;;;12.87;11.67;;;-1.30;49.90;;;;;;20686;6766;306425;-67
2023/12/04 04:25:23;;;;;;;14.35;12.95;;;-1.20;49.40;;;;;;20532;6794;280148;-68
2023/12/04 04:27:56;;;;;;;15.20;13.70;;;-1.00;48.30;;;;;;20721;6751;276867;-67
2023/12/04 04:30:32;;;;;;;16.87;15.27;;;-0.80;46.70;;;;;;20631;6751;308908;-67
2023/12/04 04:33:07;;;;;;;13.10;11.73;;;-0.70;46.10;;;;;;20881;6766;118563;-68
2023/12/04 04:35:44;;;;;;;13.93;12.23;;;-1.40;47.20;;;;;;20894;6751;117610;-67
2023/12/04 04:38:19;;;;;;;11.10;9.90;;;-1.40;47.20;;;;;;20888;6751;117395;-67
2023/12/04 04:40:55;;;;;;;12.03;9.90;;;-1.70;48.10;;;;;;20817;6751;118342;-67
2023/12/04 04:43:30;;;;;;;13.63;10.03;;;-2.00;48.80;;;;;;20826;6779;143930;-67
2023/12/04 04:46:07;;;;;;;12.50;10.07;;;-2.30;49.90;;;;;;20804;6794;118877;-67
2023/12/04 04:48:42;;;;;;;12.87;10.10;;;-2.40;49.80;;;;;;20843;6779;118161;-67
2023/12/04 04:51:18;;;;;;;11.80;10.43;;;-2.40;50.30;;;;;;20752;6769;118979;-67
2023/12/04 04:53:54;;;;;;;15.37;13.77;;;-2.60;50.70;;;;;;20706;6755;306658;-67
2023/12/04 04:56:31;;;;;;;11.80;9.97;;;-2.40;50.70;;;;;;20923;6755;117302;-67
2023/12/04 04:59:06;;;;;;;15.30;13.80;;;-2.30;50.50;;;;;;20704;6755;293976;-66
2023/12/04 05:01:43;;;;;;;10.77;9.63;;;-1.90;50.30;;;;;;20799;6756;117966;-66
2023/12/04 05:04:18;;;;;;;10.10;9.10;;;-2.00;50.30;;;;;;20942;6751;117741;-67
2023/12/04 05:06:54;;;;;;;10.27;8.90;;;-2.00;50.60;;;;;;20879;6751;118457;-67
2023/12/04 05:09:29;;;;;;;14.90;13.47;;;-2.10;50.80;;;;;;20605;6768;277837;-68
2023/12/04 05:12:07;;;;;;;15.20;13.70;;;-2.00;51.10;;;;;;20434;6780;280829;-67
2023/12/04 05:14:43;;;;;;;14.60;13.20;;;-1.20;49.30;;;;;;20596;6794;278773;-67
2023/12/04 05:17:21;;;;;;;11.03;9.90;;;-1.20;49.40;;;;;;20718;6796;118848;-67
2023/12/04 05:19:54;;;;;;;14.53;13.13;;;-1.20;49.00;;;;;;20447;6783;308706;-66
2023/12/04 05:22:31;;;;;;;14.87;13.37;;;-0.90;49.70;;;;;;20349;6866;282557;-67
2023/12/04 05:25:07;;;;;;;14.53;13.13;;;-0.90;49.10;;;;;;20593;6795;307595;-67
2023/12/04 05:27:42;;;;;;;12.63;10.70;;;-0.60;48.90;;;;;;20870;6777;118633;-73
2023/12/04 05:30:18;;;;;;;10.30;9.20;;;-0.70;48.90;;;;;;20741;6768;118300;-66
2023/12/04 05:32:54;;;;;;;11.13;9.87;;;-1.00;49.30;;;;;;20923;6753;118508;-67
2023/12/04 05:35:29;;;;;;;11.00;9.70;;;-1.20;49.90;;;;;;20773;6766;118281;-67
2023/12/04 05:38:04;;;;;;;12.20;10.23;;;-1.40;50.40;;;;;;20758;6801;118016;-67
2023/12/04 05:40:41;;;;;;;12.57;10.40;;;-1.80;51.00;;;;;;20636;6810;117648;-68
2023/12/04 05:43:16;;;;;;;14.07;10.07;;;-1.80;50.90;;;;;;20755;6798;150633;-67
2023/12/04 05:45:53;;;;;;;11.93;9.40;;;-2.10;51.90;;;;;;20796;6780;118363;-67
2023/12/04 05:48:28;;;;;;;15.75;14.10;;;-2.10;51.40;;;;;;20530;6783;340830;-68
2023/12/04 05:51:05;;;;;;;16.17;14.67;;;-1.60;50.20;;;;;;20521;6778;283954;-68
2023/12/04 05:53:40;;;;;;;16.23;14.63;;;-1.60;50.20;;;;;;20541;6803;308952;-68
2023/12/04 05:56:16;;;;;;;13.43;11.00;;;-1.30;49.20;;;;;;20835;6786;118890;-67
2023/12/04 05:58:55;;;;;;;10.80;9.70;;;-1.30;49.20;;;;;;20764;6788;117682;-67
2023/12/04 06:01:30;;;;;;;11.57;10.07;;;-1.50;49.80;;;;;;20763;6745;118744;-67
2023/12/04 06:04:09;;;;;;;14.87;13.37;;;-1.50;50.60;;;;;;20637;6758;306412;-67
2023/12/04 06:06:44;;;;;;;14.07;12.77;;;-1.50;50.60;;;;;;20555;6788;329488;-67
2023/12/04 06:09:19;;;;;;;10.67;9.57;;;-1.20;49.70;;;;;;20871;6763;118716;-68
2023/12/04 06:11:55;;;;;;;13.37;9.77;;;-1.20;49.60;;;;;;20667;6757;117504;-68
2023/12/04 06:14:30;;;;;;;10.37;8.80;;;-1.40;50.60;;;;;;20835;6744;124367;-67
2023/12/04 06:17:07;;;;;;;14.30;12.90;;;-1.50;50.40;;;;;;20668;6744;278844;-68
2023/12/04 06:19:43;;;;;;;15.40;13.90;;;-1.40;50.70;;;;;;20685;6744;276823;-66
2023/12/04 06:22:19;;;;;;;11.27;10.17;;;-1.10;49.90;;;;;;20737;6744;117706;-67
2023/12/04 06:24:54;;;;;;;10.63;9.60;;;-1.10;49.70;;;;;;20910;6744;119088;-67
2023/12/04 06:27:30;;;;;;;10.70;8.87;;;-1.20;50.10;;;;;;20876;6744;117340;-67
2023/12/04 06:30:07;;;;;;;13.70;12.37;;;-1.40;50.60;;;;;;20681;6744;278546;-68
2023/12/04 06:32:44;;;;;;;9.73;8.83;;;-1.30;50.70;;;;;;20927;6743;117690;-68
2023/12/04 06:35:20;;;;;;;13.60;12.40;;;-1.20;50.60;;;;;;20682;6744;306226;-66
2023/12/04 06:37:55;;;;;;;22.13;14.53;;;-1.10;50.40;;;;;;20862;6744;118356;-66
2023/12/04 06:40:32;;;;;;;12.23;10.10;;;-1.20;50.40;;;;;;20863;6744;118123;-67
2023/12/04 06:43:07;;;;;;;14.37;11.60;;;-1.20;50.40;;;;;;20812;6761;118489;-68
2023/12/04 06:45:44;;;;;;;16.50;14.80;;;-1.30;50.90;;;;;;20615;6761;306977;-67
2023/12/04 06:48:21;;;;;;;17.10;15.30;;;-1.00;49.40;;;;;;20631;6761;293378;-67
2023/12/04 06:50:57;;;;;;;13.93;12.53;;;-1.00;50.00;;;;;;20826;6744;117462;-68
2023/12/04 06:53:33;;;;;;;18.30;16.40;;;-1.00;49.30;;;;;;20689;6744;276796;-68
2023/12/04 06:56:09;;;;;;;12.60;11.30;;;-1.00;49.20;;;;;;20910;6744;117795;-67
2023/12/04 06:58:45;;;;;;;18.67;16.67;;;-1.10;49.20;;;;;;20647;6744;340172;-74
2023/12/04 07:01:23;;;;;;;18.40;16.50;;;-0.70;48.70;;;;;;20550;6744;280509;-73
2023/12/04 07:04:00;;;;;;;17.07;13.70;;;-0.70;48.60;;;;;;20818;6772;117427;-73
2023/12/04 07:06:35;;;;;;;14.30;11.47;;;-0.80;48.60;;;;;;20845;6757;118576;-73
2023/12/04 07:09:11;;;;;;;18.30;16.13;;;-1.00;49.50;;;;;;20624;6757;298619;-72
2023/12/04 07:11:46;;;;;;;18.30;16.50;;;-1.00;49.80;;;;;;20447;6772;310142;-73
2023/12/04 07:14:22;;;;;;;15.97;13.03;;;-0.80;48.70;;;;;;20868;6772;120252;-73
2023/12/04 07:16:58;;;;;;;16.80;12.60;;;-0.80;48.70;;;;;;20825;6776;117855;-72
2023/12/04 07:19:34;;;;;;;25.80;17.67;;;-1.10;49.50;;;;;;20640;6744;295789;-71
2023/12/04 07:22:09;;;;;;;19.70;17.67;;;-1.10;49.50;;;;;;20532;6744;308502;-70
2023/12/04 07:24:45;;;;;;;16.20;13.30;;;-0.80;49.00;;;;;;20828;6772;118647;-70
2023/12/04 07:27:21;;;;;;;19.37;17.33;;;-0.80;49.00;;;;;;20578;6787;278453;-70
2023/12/04 07:29:56;;;;;;;14.50;12.87;;;-0.80;49.00;;;;;;20881;6773;68411;-70
2023/12/04 07:32:32;;;;;;;14.03;12.53;;;-0.90;49.00;;;;;;20890;6773;71769;-70
2023/12/04 07:35:08;;;;;;;19.70;17.80;;;-1.00;49.90;;;;;;20618;6773;282732;-71
2023/12/04 07:37:44;;;;;;;16.37;14.43;;;-1.00;49.90;;;;;;20749;6788;117774;-70
2023/12/04 07:40:22;;;;;;;27.67;18.13;;;-0.90;50.00;;;;;;20758;6791;118613;-70
2023/12/04 07:42:55;;;;;;;26.10;21.30;;;-1.10;50.10;;;;;;20660;6751;308114;-70
2023/12/04 07:45:30;;;;;;;22.73;20.43;;;-0.90;50.30;;;;;;20648;6756;277923;-70
2023/12/04 07:48:06;;;;;;;19.97;17.97;;;-0.50;49.60;;;;;;20548;6807;308986;-69
2023/12/04 07:50:45;;;;;;;17.10;15.50;;;-0.20;48.80;;;;;;20567;6778;281115;-70
2023/12/04 07:53:18;;;;;;;13.37;11.30;;;0.00;48.10;;;;;;20819;6780;118498;-68
2023/12/04 07:55:53;;;;;;;15.70;14.20;;;0.00;48.20;;;;;;20515;6804;279576;-69
2023/12/04 07:58:28;;;;;;;24.70;21.17;;;0.00;48.60;;;;;;20540;6804;308845;-69
2023/12/04 08:01:07;;;;;;;19.10;17.20;;;0.30;48.50;;;;;;20543;6789;293845;-69
2023/12/04 08:03:40;;;;;;;20.17;18.17;;;0.50;48.00;;;;;;20482;6802;309252;-69
2023/12/04 08:06:18;;;;;;;21.73;19.62;;;0.70;47.90;;;;;;20612;6638;316330;-73
2023/12/04 08:08:52;;;;;;;13.23;11.80;;;0.60;48.20;;;;;;20871;6766;117219;-75
2023/12/04 08:11:27;;;;;;;17.95;16.25;;;0.60;47.90;;;;;;20457;6781;342289;-75
2023/12/04 08:14:03;;;;;;;16.73;14.13;;;0.40;48.70;;;;;;20867;6766;121692;-73
2023/12/04 08:16:39;;;;;;;16.03;13.07;;;0.40;48.80;;;;;;20848;6816;121277;-74
2023/12/04 08:19:15;;;;;;;12.93;11.63;;;0.10;49.20;;;;;;20878;6745;118352;-76
2023/12/04 08:21:50;;;;;;;19.20;17.20;;;-0.10;49.80;;;;;;20524;6758;292295;-75
2023/12/04 08:24:26;;;;;;;20.40;18.40;;;-0.10;49.50;;;;;;20611;6773;280665;-76
2023/12/04 08:27:01;;;;;;;20.67;18.47;;;0.10;48.70;;;;;;20638;6765;278681;-75
2023/12/04 08:29:37;;;;;;;20.60;18.57;;;0.30;48.20;;;;;;20568;6773;309355;-74
2023/12/04 08:32:14;;;;;;;19.53;14.80;;;0.50;47.80;;;;;;20661;6766;117876;-74
2023/12/04 08:34:50;;;;;;;29.47;24.13;;;0.30;48.00;;;;;;20646;6763;277680;-75
2023/12/04 08:37:26;;;;;;;17.07;13.50;;;0.30;47.90;;;;;;20770;6778;121423;-75
2023/12/04 08:40:03;;;;;;;16.50;13.40;;;0.20;48.20;;;;;;20754;6793;121413;-74
2023/12/04 08:42:39;;;;;;;16.03;12.23;;;-0.30;49.40;;;;;;20832;6767;117880;-75
2023/12/04 08:45:15;;;;;;;14.27;11.87;;;-0.30;49.40;;;;;;20840;6757;121639;-75
2023/12/04 08:47:51;;;;;;;14.47;12.97;;;-0.60;50.10;;;;;;20843;6766;122019;-76
2023/12/04 08:50:27;;;;;;;20.30;18.20;;;-0.60;50.40;;;;;;20635;6757;333552;-75
2023/12/04 08:53:04;;;;;;;19.47;14.27;;;-0.40;49.90;;;;;;20947;6751;119144;-77
2023/12/04 08:55:40;;;;;;;19.97;17.80;;;-0.40;50.40;;;;;;20762;6736;302673;-74
2023/12/04 08:58:15;;;;;;;14.13;12.60;;;-0.30;50.30;;;;;;20796;6778;117998;-75
2023/12/04 09:00:53;;;;;;;13.30;11.10;;;-0.30;50.70;;;;;;20746;6778;121705;-75
2023/12/04 09:03:28;;;;;;;13.50;12.10;;;-0.40;50.60;;;;;;20934;6736;121327;-77
2023/12/04 09:06:08;;;;;;;19.37;17.40;;;-0.50;51.10;;;;;;20736;6736;307146;-77
2023/12/04 09:08:43;;;;;;;24.50;20.30;;;-0.20;51.30;;;;;;20891;6736;120915;-77
2023/12/04 09:11:20;;;;;;;13.43;11.23;;;-0.10;51.10;;;;;;20871;6751;127171;-77
2023/12/04 09:13:59;;;;;;;13.00;10.43;;;-0.20;51.20;;;;;;20900;6766;120035;-77
2023/12/04 09:16:34;;;;;;;11.83;9.90;;;-0.30;51.60;;;;;;20851;6766;118767;-76
2023/12/04 09:19:10;;;;;;;9.00;8.00;;;-0.30;51.90;;;;;;20748;6778;128189;-76
2023/12/04 09:21:46;;;;;;;12.90;10.57;;;-0.30;52.30;;;;;;20684;6778;118628;-78
2023/12/04 09:24:22;;;;;;;14.20;12.50;;;-0.30;52.60;;;;;;20915;6736;120338;-76
2023/12/04 09:26:59;;;;;;;16.45;14.80;;;-0.30;53.20;;;;;;20672;6751;337319;-76
2023/12/04 09:29:34;;;;;;;16.27;14.77;;;-0.10;52.00;;;;;;20668;6742;308105;-78
2023/12/04 09:32:10;;;;;;;15.97;14.37;;;0.80;50.10;;;;;;20680;6751;306881;-77
2023/12/04 09:34:46;;;;;;;17.27;15.67;;;0.80;50.10;;;;;;20678;6766;277976;-76
2023/12/04 09:37:22;;;;;;;14.37;13.00;;;1.10;49.20;;;;;;20683;6781;305833;-77
2023/12/04 09:39:57;;;;;;;13.03;11.83;;;1.40;48.40;;;;;;20790;6781;121428;-79
2023/12/04 09:42:33;;;;;;;17.25;15.55;;;1.40;48.60;;;;;;20566;6790;338752;-77
2023/12/04 09:45:09;;;;;;;15.30;13.57;;;1.40;48.60;;;;;;20735;6809;122078;-80
2023/12/04 09:47:44;;;;;;;13.83;12.53;;;1.40;49.00;;;;;;20576;6781;309698;-78
2023/12/04 09:50:22;;;;;;;16.00;14.50;;;1.40;49.00;;;;;;20610;6766;280220;-78
2023/12/04 09:52:57;;;;;;;14.20;11.83;;;1.60;48.50;;;;;;20925;6742;120892;-77
2023/12/04 09:55:33;;;;;;;18.55;16.55;;;1.60;48.90;;;;;;20703;6742;308898;-77
2023/12/04 09:58:08;;;;;;;18.37;16.55;;;1.50;48.80;;;;;;20651;6768;307457;-77
2023/12/04 10:00:47;;;;;;;15.10;13.37;;;1.60;48.70;;;;;;20749;6768;121088;-75
2023/12/04 10:03:22;;;;;;;12.07;10.87;;;1.60;48.70;;;;;;20876;6768;118155;-77
2023/12/04 10:05:57;;;;;;;12.00;10.80;;;1.40;49.40;;;;;;20897;6768;122586;-77
2023/12/04 10:08:33;;;;;;;9.33;8.43;;;1.20;50.10;;;;;;20865;6768;121056;-77
2023/12/04 10:11:09;;;;;;;13.00;11.80;;;1.00;50.60;;;;;;20483;6768;281513;-76
2023/12/04 10:13:44;;;;;;;13.90;12.70;;;1.10;50.40;;;;;;20677;6768;297158;-77
2023/12/04 10:16:33;;;;;;;14.17;12.97;;;1.50;49.60;;;;;;20670;6768;307791;-78
2023/12/04 10:19:17;;;;;;;10.70;9.60;;;1.70;48.40;;;;;;20850;6768;129866;-78
2023/12/04 10:21:54;;;;;;;10.13;9.07;;;1.70;48.60;;;;;;20884;6768;117441;-77
2023/12/04 10:24:36;;;;;;;13.05;11.90;;;1.40;49.10;;;;;;20703;6768;307768;-77
2023/12/04 10:27:11;;;;;;;13.48;12.37;;;1.50;49.10;;;;;;20684;6768;278594;-78
2023/12/04 10:29:47;;;;;;;20.30;18.60;;;1.80;48.70;;;;;;20595;6775;340171;-77
2023/12/04 10:32:22;;;;;;;12.07;10.70;;;1.90;48.20;;;;;;20870;6775;114631;-75
2023/12/04 10:35:00;;;;;;;10.43;9.43;;;1.90;48.40;;;;;;20936;6768;67274;-77
2023/12/04 10:37:38;;;;;;;10.33;9.33;;;1.70;48.90;;;;;;20871;6783;115023;-78
2023/12/04 10:40:25;;;;;;;11.67;10.27;;;1.40;50.10;;;;;;20735;6785;117918;-75
2023/12/04 10:43:15;;;;;;;16.30;14.77;;;1.30;49.90;;;;;;20631;6783;290339;-75
2023/12/04 10:45:51;;;;;;;13.27;11.90;;;1.50;50.20;;;;;;20846;6783;121947;-76
2023/12/04 10:48:26;;;;;;;12.63;11.30;;;1.50;50.20;;;;;;20825;6783;122688;-77
2023/12/04 10:51:02;;;;;;;11.73;10.50;;;1.40;50.50;;;;;;20746;6783;117879;-76
2023/12/04 10:53:40;;;;;;;17.00;14.97;;;1.30;51.00;;;;;;20560;6783;280488;-77
2023/12/04 10:56:17;;;;;;;16.60;14.90;;;1.80;50.00;;;;;;20609;6775;276987;-79
2023/12/04 10:58:51;;;;;;;13.00;11.70;;;1.80;50.00;;;;;;20874;6768;117383;-76
2023/12/04 11:01:26;;;;;;;8.50;7.73;;;1.90;50.00;;;;;;20834;6778;122137;-74
2023/12/04 11:04:02;;;;;;;11.27;10.17;;;1.90;51.00;;;;;;20853;6778;119100;-74
2023/12/04 11:06:37;;;;;;;10.90;9.80;;;1.90;52.00;;;;;;20802;6778;123787;-73
2023/12/04 11:09:16;;;;;;;9.87;8.97;;;1.80;52.30;;;;;;20843;6763;122953;-75
2023/12/04 11:11:51;;;;;;;13.90;12.60;;;1.80;51.70;;;;;;20718;6753;335757;-74
2023/12/04 11:14:30;;;;;;;10.50;9.50;;;2.00;51.50;;;;;;20835;6768;117516;-77
2023/12/04 11:17:03;;;;;;;13.97;12.77;;;2.20;51.30;;;;;;20731;6753;300569;-75
2023/12/04 11:19:39;;;;;;;15.83;14.40;;;2.70;49.80;;;;;;20636;6752;299206;-75
2023/12/04 11:22:19;;;;;;;14.17;12.47;;;2.70;49.70;;;;;;20902;6760;68340;-76
2023/12/04 11:24:52;;;;;;;12.67;9.23;;;2.50;50.10;;;;;;20930;6760;118728;-78
2023/12/04 11:27:29;;;;;;;10.67;9.67;;;2.50;50.10;;;;;;20883;6760;121580;-77
2023/12/04 11:30:07;;;;;;;9.43;8.63;;;2.30;50.50;;;;;;20828;6753;122456;-75
2023/12/04 11:32:47;;;;;;;11.17;9.20;;;2.20;51.00;;;;;;20945;6753;119722;-73
2023/12/04 11:35:27;;;;;;;14.73;13.43;;;2.10;51.50;;;;;;20658;6753;308610;-76
2023/12/04 11:38:03;;;;;;;13.00;11.57;;;2.20;50.70;;;;;;20879;6753;117643;-75
2023/12/04 11:40:41;;;;;;;16.87;15.27;;;2.30;50.50;;;;;;20546;6753;311906;-75
2023/12/04 11:43:23;;;;;;;11.60;10.50;;;2.60;50.60;;;;;;20878;6768;117720;-73
2023/12/04 11:46:09;;;;;;;13.10;12.00;;;2.60;50.60;;;;;;20675;6768;338040;-75
2023/12/04 11:48:46;;;;;;;13.63;12.43;;;3.00;49.60;;;;;;20628;6768;277918;-79
2023/12/04 11:51:39;;;;;;;13.50;12.40;;;3.00;48.90;;;;;;20569;6760;306951;-77
2023/12/04 11:54:16;;;;;;;14.43;13.23;;;3.30;48.30;;;;;;20703;6760;276829;-75
2023/12/04 11:56:56;;;;;;;10.83;9.87;;;3.30;47.80;;;;;;20942;6753;118047;-76
2023/12/04 11:59:31;;;;;;;10.80;9.80;;;3.30;47.80;;;;;;20856;6753;118013;-80
2023/12/04 12:02:07;;;;;;;13.50;12.30;;;3.10;48.80;;;;;;20512;6760;338004;-78
2023/12/04 12:04:42;;;;;;;14.80;13.40;;;3.10;49.40;;;;;;20706;6760;308098;-76
2023/12/04 12:07:18;;;;;;;12.53;11.07;;;3.40;49.40;;;;;;20886;6760;119367;-76
2023/12/04 12:09:57;;;;;;;12.90;10.47;;;3.40;49.20;;;;;;20801;6768;121575;-77
2023/12/04 12:12:33;;;;;;;17.50;15.80;;;3.20;49.80;;;;;;20694;6768;306914;-77
2023/12/04 12:15:09;;;;;;;46.67;25.33;;;3.30;50.20;;;;;;20873;6753;119081;-76
2023/12/04 12:17:44;;;;;;;14.17;12.53;;;3.30;50.10;;;;;;20890;6753;117607;-75
2023/12/04 12:20:20;;;;;;;17.13;15.50;;;3.20;50.50;;;;;;20541;6753;310288;-75
2023/12/04 12:22:56;;;;;;;14.93;12.77;;;3.20;50.30;;;;;;20914;6760;117642;-76
2023/12/04 12:25:31;;;;;;;12.17;10.93;;;3.30;50.50;;;;;;20894;6760;122296;-75
2023/12/04 12:28:07;;;;;;;15.00;13.67;;;3.30;50.90;;;;;;20731;6753;288568;-77
2023/12/04 12:30:45;;;;;;;10.93;9.93;;;3.40;50.40;;;;;;20897;6752;118156;-77
2023/12/04 12:33:19;;;;;;;10.63;9.53;;;3.50;50.50;;;;;;20923;6753;121994;-78
2023/12/04 12:35:53;;;;;;;11.37;10.17;;;3.50;50.70;;;;;;20943;6753;117033;-78
2023/12/04 12:38:34;;;;;;;14.77;13.48;;;3.30;50.80;;;;;;20665;6753;336613;-78
2023/12/04 12:41:11;;;;;;;14.77;13.47;;;3.50;50.60;;;;;;20502;6756;281824;-76
2023/12/04 12:43:45;;;;;;;15.00;13.60;;;3.80;50.20;;;;;;20611;6771;307939;-77
2023/12/04 12:46:20;;;;;;;11.90;10.33;;;4.10;49.30;;;;;;20808;6783;116382;-77
2023/12/04 12:48:56;;;;;;;16.92;15.25;;;4.00;49.00;;;;;;20557;6783;307901;-77
2023/12/04 12:51:32;;;;;;;11.77;10.67;;;4.00;48.20;;;;;;20807;6771;117836;-77
2023/12/04 12:54:08;;;;;;;11.73;10.23;;;3.70;49.10;;;;;;20886;6753;121681;-76
2023/12/04 12:56:44;;;;;;;14.20;12.90;;;3.60;49.10;;;;;;20608;6771;319946;-75
2023/12/04 12:59:22;;;;;;;11.33;10.23;;;3.70;49.10;;;;;;20870;6753;121681;-77
2023/12/04 13:01:56;;;;;;;13.10;11.90;;;3.70;49.30;;;;;;20668;6753;321351;-77
2023/12/04 13:04:34;;;;;;;13.45;12.25;;;3.80;49.30;;;;;;20654;6753;308593;-76
2023/12/04 13:07:11;;;;;;;15.97;14.47;;;4.00;47.90;;;;;;20651;6760;279539;-75
2023/12/04 13:09:46;;;;;;;11.97;10.87;;;4.30;47.30;;;;;;20795;6753;121329;-75
2023/12/04 13:12:21;;;;;;;10.73;9.67;;;4.30;47.60;;;;;;20863;6759;118633;-76
2023/12/04 13:14:57;;;;;;;13.53;12.33;;;4.10;48.30;;;;;;20619;6768;310758;-77
2023/12/04 13:17:32;;;;;;;12.07;10.97;;;4.10;48.80;;;;;;20833;6759;117511;-77
2023/12/04 13:20:13;;;;;;;13.83;11.20;;;4.00;49.00;;;;;;20723;6771;120124;-76